createdAt,value
2023-01-26T01:27:10.409Z,38.10
2023-01-26T01:29:44.653Z,34.13
2023-01-26T01:32:14.147Z,33.20
2023-01-26T01:34:46.323Z,31.90
2023-01-26T01:37:16.032Z,36.03
2023-01-26T01:39:48.187Z,37.67
2023-01-26T01:42:19.993Z,39.20
2023-01-26T01:45:33.957Z,35.65
2023-01-26T01:48:14.992Z,41.38
2023-01-26T01:50:46.392Z,44.72
2023-01-26T01:53:24.733Z,39.30
2023-01-26T01:56:02.440Z,40.92
2023-01-26T01:58:46.966Z,38.47
2023-01-26T02:01:17.312Z,42.20
2023-01-26T02:03:53.490Z,41.63
2023-01-26T02:06:29.948Z,44.22
2023-01-26T02:09:03.159Z,46.70
2023-01-26T02:11:40.003Z,45.13
2023-01-26T02:14:18.981Z,47.45
2023-01-26T02:16:48.307Z,42.80
2023-01-26T02:19:30.425Z,49.00
2023-01-26T02:22:09.251Z,43.63
2023-01-26T02:24:43.990Z,52.75
2023-01-26T02:27:14.637Z,50.13
2023-01-26T02:29:46.627Z,50.97
2023-01-26T02:32:16.256Z,48.00
2023-01-26T02:34:45.739Z,45.35
2023-01-26T02:37:17.901Z,46.38
2023-01-26T02:40:09.575Z,45.22
2023-01-26T02:42:44.543Z,50.80
2023-01-26T02:45:23.971Z,41.85
2023-01-26T02:47:55.490Z,42.10
2023-01-26T02:50:23.908Z,38.65
2023-01-26T02:52:53.684Z,36.22
2023-01-26T02:55:26.455Z,42.75
2023-01-26T02:58:01.871Z,35.08
2023-01-26T03:00:49.316Z,40.05
2023-01-26T03:03:27.272Z,40.83
2023-01-26T03:05:56.504Z,39.00
2023-01-26T03:08:25.718Z,38.60
2023-01-26T03:10:59.106Z,38.22
2023-01-26T03:13:32.494Z,38.38
2023-01-26T03:16:09.466Z,42.40
2023-01-26T03:18:58.822Z,39.70
2023-01-26T03:21:48.445Z,43.70
2023-01-26T03:24:37.815Z,42.58
2023-01-26T03:27:29.265Z,39.97
2023-01-26T03:30:10.663Z,41.78
2023-01-26T03:32:45.659Z,31.02
2023-01-26T03:35:23.145Z,42.90
2023-01-26T03:37:56.781Z,45.33
2023-01-26T03:40:57.673Z,43.53
2023-01-26T03:43:47.652Z,52.00
2023-01-26T03:46:37.087Z,55.28
2023-01-26T03:49:25.879Z,48.92
2023-01-26T03:52:17.910Z,47.95
2023-01-26T03:55:06.539Z,45.88
2023-01-26T03:57:35.913Z,49.67
2023-01-26T04:00:10.194Z,51.63
2023-01-26T04:03:02.994Z,52.20
2023-01-26T04:05:56.342Z,47.30
2023-01-26T04:08:51.820Z,48.55
2023-01-26T04:11:27.111Z,52.58
2023-01-26T04:14:13.855Z,50.72
2023-01-26T04:17:02.623Z,55.95
2023-01-26T04:19:52.834Z,50.33
2023-01-26T04:22:22.197Z,49.60
2023-01-26T04:24:54.825Z,52.28
2023-01-26T04:27:24.804Z,56.13
2023-01-26T04:29:57.277Z,52.03
2023-01-26T04:32:27.290Z,48.67
2023-01-26T04:35:01.030Z,56.08
2023-01-26T04:37:32.351Z,50.38
2023-01-26T04:40:04.799Z,50.47
2023-01-26T04:42:38.575Z,54.40
2023-01-26T04:45:09.433Z,57.72
2023-01-26T04:47:42.672Z,56.17
2023-01-26T04:50:14.271Z,58.80
2023-01-26T04:52:46.685Z,46.45
2023-01-26T04:55:16.462Z,52.20
2023-01-26T04:57:49.143Z,58.20
2023-01-26T05:00:18.980Z,63.72
2023-01-26T05:02:51.924Z,58.33
2023-01-26T05:05:24.851Z,67.78
2023-01-26T05:07:56.289Z,64.63
2023-01-26T05:10:30.013Z,66.67
2023-01-26T05:13:21.652Z,53.28
2023-01-26T05:16:14.082Z,51.58
2023-01-26T05:19:13.142Z,46.38
2023-01-26T05:22:12.215Z,42.42
2023-01-26T05:24:47.689Z,41.13
2023-01-26T05:30:14.855Z,42.13
2023-01-26T05:32:45.003Z,115.43
2023-01-26T05:35:19.639Z,54.30
2023-01-26T05:40:22.813Z,51.65
2023-01-26T05:42:54.844Z,45.33
2023-01-26T05:45:40.118Z,49.05
2023-01-26T05:48:12.099Z,53.67
2023-01-26T05:50:41.890Z,51.10
2023-01-26T05:53:17.135Z,52.88
2023-01-26T05:55:50.103Z,50.25
2023-01-26T05:58:23.107Z,51.83
2023-01-26T06:00:55.418Z,54.17
2023-01-26T06:03:32.272Z,52.25
2023-01-26T06:06:01.862Z,57.72
2023-01-26T06:08:48.097Z,53.38
2023-01-26T06:11:36.470Z,55.13
2023-01-26T06:15:12.520Z,58.65
2023-01-26T06:17:53.357Z,49.38
2023-01-26T06:20:36.614Z,56.75
2023-01-26T06:23:14.040Z,51.95
2023-01-26T06:25:45.403Z,56.15
2023-01-26T06:28:21.164Z,59.67
2023-01-26T06:30:56.500Z,99.78
2023-01-26T06:33:35.096Z,59.38
2023-01-26T06:36:11.983Z,55.03
2023-01-26T06:38:49.465Z,56.67
2023-01-26T06:41:25.488Z,62.42
2023-01-26T06:43:55.102Z,59.70
2023-01-26T06:46:28.222Z,60.22
2023-01-26T06:48:57.757Z,65.80
2023-01-26T06:51:53.759Z,59.20
2023-01-26T06:54:25.567Z,64.25
2023-01-26T06:57:19.112Z,62.80
2023-01-26T07:00:14.265Z,65.80
2023-01-26T07:03:15.950Z,59.95
2023-01-26T07:05:47.292Z,60.05
2023-01-26T07:08:16.724Z,60.72
2023-01-26T07:10:48.796Z,51.55
2023-01-26T07:13:19.973Z,53.58
2023-01-26T07:15:55.352Z,56.15
2023-01-26T07:18:24.471Z,50.20
2023-01-26T07:21:01.756Z,55.40
2023-01-26T07:23:35.126Z,48.92
2023-01-26T07:26:08.257Z,58.97
2023-01-26T07:28:40.263Z,53.67
2023-01-26T07:31:13.955Z,45.85
2023-01-26T07:33:43.469Z,57.45
2023-01-26T07:36:14.930Z,58.17
2023-01-26T07:38:44.062Z,55.15
2023-01-26T07:41:17.013Z,52.95
2023-01-26T07:44:08.767Z,55.85
2023-01-26T07:46:49.823Z,56.70
2023-01-26T07:49:33.949Z,55.83
2023-01-26T07:52:04.736Z,56.60
2023-01-26T07:54:38.535Z,53.85
2023-01-26T07:57:10.608Z,55.92
2023-01-26T07:59:41.827Z,56.83
2023-01-26T08:02:15.752Z,56.97
2023-01-26T08:04:45.708Z,52.78
2023-01-26T08:07:20.023Z,54.92
2023-01-26T08:09:54.656Z,49.33
2023-01-26T08:12:24.683Z,45.28
2023-01-26T08:14:59.591Z,49.17
2023-01-26T08:17:32.981Z,49.78
2023-01-26T08:20:03.781Z,44.70
2023-01-26T08:22:37.061Z,48.08
2023-01-26T08:25:14.035Z,44.38
2023-01-26T08:27:43.313Z,46.15
2023-01-26T08:30:17.649Z,44.90
2023-01-26T08:32:46.850Z,41.45
2023-01-26T08:35:20.598Z,46.05
2023-01-26T08:37:50.375Z,37.03
2023-01-26T08:40:24.857Z,43.47
2023-01-26T08:42:57.657Z,41.55
2023-01-26T08:46:02.637Z,42.10
2023-01-26T08:48:39.238Z,37.17
2023-01-26T08:51:09.308Z,41.72
2023-01-26T08:53:43.452Z,39.17
2023-01-26T08:56:17.364Z,37.65
2023-01-26T08:58:46.572Z,35.60
2023-01-26T09:01:50.176Z,36.50
2023-01-26T09:04:27.610Z,36.08
2023-01-26T09:06:58.466Z,32.50
2023-01-26T09:09:33.190Z,34.38
2023-01-26T09:12:02.963Z,41.25
2023-01-26T09:14:35.696Z,38.83
2023-01-26T09:17:07.072Z,38.00
2023-01-26T09:19:37.274Z,38.75
2023-01-26T09:22:07.120Z,35.22
2023-01-26T09:24:44.159Z,34.92
2023-01-26T09:27:20.518Z,38.53
2023-01-26T09:29:56.349Z,40.58
2023-01-26T09:32:30.165Z,41.03
2023-01-26T09:35:01.854Z,37.55
2023-01-26T09:37:31.580Z,38.42
2023-01-26T09:40:10.764Z,37.58
2023-01-26T09:42:51.973Z,44.28
2023-01-26T09:45:36.488Z,38.10
2023-01-26T09:48:28.337Z,43.60
2023-01-26T09:51:05.137Z,38.28
2023-01-26T09:53:44.826Z,40.17
2023-01-26T09:56:23.021Z,38.20
2023-01-26T09:59:09.665Z,34.10
2023-01-26T10:01:49.875Z,41.17
2023-01-26T10:04:36.927Z,41.17
2023-01-26T10:07:14.428Z,37.67
2023-01-26T10:09:57.096Z,38.95
2023-01-26T10:12:29.869Z,34.28
2023-01-26T10:15:04.944Z,32.75
2023-01-26T10:17:39.994Z,42.50
2023-01-26T10:20:30.957Z,38.83
2023-01-26T10:23:04.995Z,43.00
2023-01-26T10:28:21.924Z,35.10
2023-01-26T10:30:54.687Z,37.10
2023-01-26T10:33:33.114Z,38.60
2023-01-26T10:36:16.321Z,33.70
2023-01-26T10:38:57.161Z,33.30
2023-01-26T10:41:30.275Z,34.45
2023-01-26T10:44:05.120Z,32.80
2023-01-26T10:46:36.508Z,33.45
2023-01-26T10:52:08.908Z,30.65
2023-01-26T10:54:39.821Z,35.92
2023-01-26T10:57:18.924Z,33.00
2023-01-26T10:59:55.604Z,32.47
2023-01-26T11:02:29.666Z,30.65
2023-01-26T11:05:19.978Z,31.67
2023-01-26T11:07:58.195Z,33.80
2023-01-26T11:10:34.487Z,38.28
2023-01-26T11:13:24.788Z,29.20
2023-01-26T11:16:05.018Z,33.15
2023-01-26T11:18:43.671Z,30.35
2023-01-26T11:21:21.666Z,29.27
2023-01-26T11:24:06.084Z,29.15
2023-01-26T11:27:14.723Z,23.45
2023-01-26T11:29:59.641Z,25.73
2023-01-26T11:32:38.611Z,23.98
2023-01-26T11:35:17.792Z,18.60
2023-01-26T11:37:57.890Z,19.38
2023-01-26T11:40:46.910Z,22.83
2023-01-26T11:43:36.365Z,18.33
2023-01-26T11:46:28.987Z,17.08
2023-01-26T11:49:20.618Z,22.30
2023-01-26T11:52:02.214Z,19.05
2023-01-26T11:54:53.222Z,20.50
2023-01-26T11:57:31.184Z,21.60
2023-01-26T12:00:05.530Z,18.45
2023-01-26T12:02:44.953Z,19.88
2023-01-26T12:05:20.297Z,21.90
2023-01-26T12:07:56.388Z,21.38
2023-01-26T12:10:31.691Z,22.70
2023-01-26T12:13:11.633Z,23.58
2023-01-26T12:15:49.899Z,27.13
2023-01-26T12:18:29.916Z,24.85
2023-01-26T12:21:10.973Z,29.58
2023-01-26T12:23:52.218Z,24.63
2023-01-26T12:27:01.579Z,23.02
2023-01-26T12:29:42.118Z,29.00
2023-01-26T12:32:14.330Z,27.25
2023-01-26T12:34:43.917Z,26.70
2023-01-26T12:37:43.220Z,25.20
2023-01-26T12:40:23.520Z,24.52
2023-01-26T12:43:05.487Z,24.30
2023-01-26T12:45:40.696Z,27.38
2023-01-26T12:48:17.184Z,23.98
2023-01-26T12:50:55.467Z,21.77
2023-01-26T12:53:32.600Z,25.40
2023-01-26T12:56:11.149Z,24.05
2023-01-26T12:58:44.813Z,27.85
2023-01-26T13:01:21.533Z,27.30
2023-01-26T13:03:58.927Z,28.95
2023-01-26T13:06:30.059Z,26.38
2023-01-26T13:09:06.298Z,27.10
2023-01-26T13:11:54.401Z,32.63
2023-01-26T13:14:32.595Z,32.22
2023-01-26T13:17:34.440Z,32.55
2023-01-26T13:20:24.743Z,27.65
2023-01-26T13:22:55.214Z,28.00
2023-01-26T13:25:32.548Z,29.98
2023-01-26T13:28:14.728Z,28.65
2023-01-26T13:30:46.412Z,25.33
2023-01-26T13:33:19.748Z,24.98
2023-01-26T13:35:52.723Z,31.70
2023-01-26T13:38:34.729Z,28.38
2023-01-26T13:41:08.453Z,32.05
2023-01-26T13:43:41.739Z,28.08
2023-01-26T13:46:19.995Z,30.60
2023-01-26T13:48:50.736Z,30.98
2023-01-26T13:51:24.113Z,27.83
2023-01-26T13:54:03.714Z,28.65
2023-01-26T13:56:35.618Z,28.35
2023-01-26T13:59:13.355Z,25.20
2023-01-26T14:01:44.493Z,27.63
2023-01-26T14:04:21.249Z,30.20
2023-01-26T14:07:07.401Z,27.95
2023-01-26T14:09:45.789Z,26.77
2023-01-26T14:12:22.203Z,30.70
2023-01-26T14:14:55.807Z,25.95
2023-01-26T14:17:30.236Z,27.95
2023-01-26T14:20:01.652Z,30.52
2023-01-26T14:22:33.358Z,29.63
2023-01-26T14:25:04.104Z,30.63
2023-01-26T14:27:38.263Z,29.38
2023-01-26T14:30:24.144Z,27.13
2023-01-26T14:33:00.743Z,29.55
2023-01-26T14:35:30.439Z,26.80
2023-01-26T14:38:20.375Z,32.30
2023-01-26T14:40:51.836Z,29.38
2023-01-26T14:43:23.789Z,31.67
2023-01-26T14:46:02.625Z,32.63
2023-01-26T14:48:36.210Z,32.78
2023-01-26T14:51:08.338Z,39.72
2023-01-26T14:53:39.074Z,31.23
2023-01-26T14:56:18.897Z,40.15
2023-01-26T14:58:53.544Z,34.35
2023-01-26T15:01:24.514Z,30.88
2023-01-26T15:04:01.166Z,39.58
2023-01-26T15:06:32.900Z,44.92
2023-01-26T15:09:06.214Z,42.42
2023-01-26T15:11:51.967Z,42.13
2023-01-26T15:14:33.152Z,41.90
2023-01-26T15:17:02.793Z,48.80
2023-01-26T15:19:41.775Z,41.92
2023-01-26T15:22:23.175Z,47.28
2023-01-26T15:25:17.369Z,47.42
2023-01-26T15:27:57.508Z,50.25
2023-01-26T15:30:30.468Z,46.78
2023-01-26T15:33:00.319Z,43.90
2023-01-26T15:35:30.649Z,51.33
2023-01-26T15:38:04.868Z,43.40
2023-01-26T15:40:35.573Z,47.45
2023-01-26T15:43:26.314Z,46.60
2023-01-26T15:45:57.397Z,41.65
2023-01-26T15:48:26.934Z,40.35
2023-01-26T15:50:56.381Z,45.70
2023-01-26T15:53:32.309Z,47.42
2023-01-26T15:56:06.488Z,45.83
2023-01-26T15:58:36.995Z,43.65
2023-01-26T16:01:06.920Z,42.03
2023-01-26T16:03:36.390Z,46.40
2023-01-26T16:20:39.375Z,41.05
2023-01-26T16:23:49.629Z,46.92
2023-01-26T16:26:20.831Z,41.53
2023-01-26T16:28:50.731Z,45.53
2023-01-26T16:31:23.048Z,42.47
2023-01-26T16:33:53.782Z,40.78
2023-01-26T16:36:25.120Z,46.42
2023-01-26T16:38:57.571Z,36.53
2023-01-26T16:41:28.701Z,42.17
2023-01-26T16:44:02.423Z,43.33
2023-01-26T16:46:33.635Z,41.38
2023-01-26T16:49:03.057Z,42.03
2023-01-26T16:51:39.233Z,43.22
2023-01-26T16:54:09.245Z,44.17
2023-01-26T16:56:38.645Z,45.33
2023-01-26T16:59:07.951Z,37.40
2023-01-26T17:01:38.686Z,38.65
2023-01-26T17:04:08.447Z,40.28
2023-01-26T17:06:39.352Z,38.53
2023-01-26T17:09:10.676Z,39.97
2023-01-26T17:11:43.117Z,41.17
2023-01-26T17:14:13.471Z,37.00
2023-01-26T17:16:42.822Z,41.75
2023-01-26T17:19:12.462Z,37.22
2023-01-26T17:21:44.142Z,36.85
2023-01-26T17:24:13.923Z,43.42
2023-01-26T17:26:43.184Z,39.58
2023-01-26T17:29:13.633Z,38.88
2023-01-26T17:31:43.382Z,40.78
2023-01-26T17:34:13.033Z,41.78
2023-01-26T17:36:45.902Z,43.38
2023-01-26T17:39:15.993Z,40.20
2023-01-26T17:41:45.832Z,40.70
2023-01-26T17:44:16.839Z,39.45
2023-01-26T17:46:46.480Z,36.80
2023-01-26T17:49:23.207Z,40.22
2023-01-26T17:51:54.281Z,39.30
2023-01-26T17:54:25.724Z,40.13
2023-01-26T17:56:56.410Z,41.55
2023-01-26T17:59:25.897Z,38.05
2023-01-26T18:02:00.249Z,37.92
2023-01-26T18:04:33.237Z,37.63
2023-01-26T18:07:04.453Z,41.90
2023-01-26T18:09:34.425Z,37.33
2023-01-26T18:12:05.017Z,42.20
2023-01-26T18:14:35.185Z,38.95
2023-01-26T18:17:05.542Z,51.58
2023-01-26T18:19:38.245Z,44.80
2023-01-26T18:22:14.956Z,44.00
2023-01-26T18:24:48.299Z,43.42
2023-01-26T18:27:18.646Z,43.95
2023-01-26T18:29:51.798Z,48.05
2023-01-26T18:32:45.875Z,55.10
2023-01-26T18:35:35.141Z,41.67
2023-01-26T18:38:14.465Z,47.47
2023-01-26T18:40:47.182Z,41.38
2023-01-26T18:43:22.409Z,41.30
2023-01-26T18:46:17.481Z,38.75
2023-01-26T18:48:54.757Z,36.22
2023-01-26T18:51:27.482Z,40.00
2023-01-26T18:53:58.927Z,43.72
2023-01-26T18:56:32.029Z,42.53
2023-01-26T18:59:02.978Z,38.15
2023-01-26T19:01:40.654Z,47.60
2023-01-26T19:04:10.762Z,42.25
2023-01-26T19:06:40.466Z,40.47
2023-01-26T19:09:12.299Z,40.05
2023-01-26T19:11:51.539Z,48.17
2023-01-26T19:14:22.948Z,41.63
2023-01-26T19:16:54.242Z,38.42
2023-01-26T19:19:24.242Z,45.03
2023-01-26T19:22:01.031Z,39.42
2023-01-26T19:24:33.147Z,42.85
2023-01-26T19:27:04.150Z,44.65
2023-01-26T19:29:35.428Z,41.55
2023-01-26T19:32:05.119Z,42.60
2023-01-26T19:34:35.418Z,41.10
2023-01-26T19:37:04.945Z,38.50
2023-01-26T19:39:36.665Z,37.83
2023-01-26T19:42:06.565Z,32.00
2023-01-26T19:44:36.614Z,40.78
2023-01-26T19:47:08.967Z,37.53
2023-01-26T19:49:38.712Z,42.97
2023-01-26T19:52:14.237Z,45.72
2023-01-26T19:54:48.153Z,37.58
2023-01-26T19:57:18.484Z,43.13
2023-01-26T19:59:50.626Z,38.75
2023-01-26T20:02:22.962Z,39.95
2023-01-26T20:04:52.522Z,43.80
2023-01-26T20:07:24.622Z,41.58
2023-01-26T20:09:55.196Z,37.47
2023-01-26T20:12:24.992Z,42.00
2023-01-26T20:14:54.913Z,43.35
2023-01-26T20:17:32.218Z,39.80
2023-01-26T20:20:02.734Z,41.78
2023-01-26T20:22:34.247Z,39.70
2023-01-26T20:25:06.520Z,39.88
2023-01-26T20:27:36.102Z,42.80
2023-01-26T20:30:08.449Z,40.65
2023-01-26T20:32:38.875Z,33.35
2023-01-26T20:35:10.060Z,41.65
2023-01-26T20:37:41.285Z,38.53
2023-01-26T20:40:14.018Z,34.75
2023-01-26T20:42:44.158Z,38.70
2023-01-26T20:45:15.262Z,40.92
2023-01-26T20:47:45.672Z,42.67
2023-01-26T20:50:20.266Z,37.22
2023-01-26T20:52:50.270Z,41.80
2023-01-26T20:55:24.333Z,42.20
2023-01-26T20:57:59.919Z,33.58
2023-01-26T21:00:31.504Z,39.38
2023-01-26T21:03:01.506Z,42.80
2023-01-26T21:05:31.752Z,36.45
2023-01-26T21:08:01.577Z,37.17
2023-01-26T21:10:32.429Z,38.58
2023-01-26T21:13:01.805Z,39.92
2023-01-26T21:15:31.354Z,36.72
2023-01-26T21:18:01.101Z,38.33
2023-01-26T21:20:30.465Z,37.40
2023-01-26T21:23:00.983Z,39.85
2023-01-26T21:25:31.955Z,41.33
2023-01-26T21:28:01.649Z,39.45
2023-01-26T21:30:31.597Z,33.80
2023-01-26T21:33:01.931Z,38.35
2023-01-26T21:35:31.539Z,41.65
2023-01-26T21:38:01.671Z,36.78
2023-01-26T21:40:33.730Z,37.25
2023-01-26T21:43:03.716Z,38.15
2023-01-26T21:45:50.834Z,40.78
2023-01-26T21:48:31.966Z,35.72
2023-01-26T21:51:24.503Z,35.03
2023-01-26T21:53:54.854Z,35.45
2023-01-26T21:56:25.445Z,40.85
2023-01-26T21:58:57.838Z,36.35
2023-01-26T22:01:29.582Z,37.90
2023-01-26T22:04:00.883Z,42.47
2023-01-26T22:06:31.673Z,41.20
2023-01-26T22:09:01.443Z,37.10
2023-01-26T22:11:32.444Z,37.40
2023-01-26T22:14:03.648Z,38.35
2023-01-26T22:16:33.344Z,41.80
2023-01-26T22:19:03.813Z,39.28
2023-01-26T22:21:33.551Z,39.05
2023-01-26T22:24:03.509Z,43.00
2023-01-26T22:26:35.599Z,35.10
2023-01-26T22:29:06.101Z,40.67
2023-01-26T22:31:35.765Z,36.10
2023-01-26T22:34:05.296Z,36.05
2023-01-26T22:36:34.624Z,36.17
2023-01-26T22:39:04.946Z,39.30
2023-01-26T22:41:36.032Z,38.88
2023-01-26T22:44:05.393Z,40.40
2023-01-26T22:46:34.634Z,42.70
2023-01-26T22:49:05.887Z,37.80
2023-01-26T22:51:37.631Z,38.97
2023-01-26T22:54:07.263Z,35.70
2023-01-26T22:56:37.947Z,40.58
2023-01-26T22:59:07.130Z,36.60
2023-01-26T23:01:36.332Z,40.88
2023-01-26T23:04:05.529Z,42.10
2023-01-26T23:06:36.321Z,42.17
2023-01-26T23:09:05.561Z,43.72
2023-01-26T23:11:34.701Z,44.65
2023-01-26T23:14:05.238Z,36.80
2023-01-26T23:16:34.924Z,41.83
2023-01-26T23:19:04.045Z,39.83
2023-01-26T23:21:33.354Z,45.72
2023-01-26T23:24:02.479Z,41.00
2023-01-26T23:26:31.578Z,42.45
2023-01-26T23:29:00.745Z,35.95
2023-01-26T23:31:32.025Z,36.05
2023-01-26T23:34:01.546Z,36.63
2023-01-26T23:36:31.039Z,38.50
2023-01-26T23:39:00.988Z,36.17
2023-01-26T23:41:30.573Z,36.05
2023-01-26T23:44:01.899Z,33.75
2023-01-26T23:46:32.531Z,33.35
2023-01-26T23:49:01.826Z,38.33
2023-01-26T23:51:30.753Z,37.00
2023-01-26T23:53:59.913Z,37.88
2023-01-26T23:56:29.506Z,37.88
2023-01-26T23:58:58.512Z,35.53
